sensor_id;sensor_type;location;lat;lon;timestamp;temperature;humidity
64817;DHT22;69411;45.656;11.740;2024-03-29T00:01:07;8.50;82.20
64817;DHT22;69411;45.656;11.740;2024-03-29T00:03:32;8.60;82.10
64817;DHT22;69411;45.656;11.740;2024-03-29T00:05:58;8.50;82.40
64817;DHT22;69411;45.656;11.740;2024-03-29T00:08:24;8.60;82.90
64817;DHT22;69411;45.656;11.740;2024-03-29T00:10:50;8.60;82.60
64817;DHT22;69411;45.656;11.740;2024-03-29T00:13:16;8.60;82.50
64817;DHT22;69411;45.656;11.740;2024-03-29T00:15:42;8.60;82.60
64817;DHT22;69411;45.656;11.740;2024-03-29T00:18:11;8.70;82.70
64817;DHT22;69411;45.656;11.740;2024-03-29T00:20:36;8.80;82.60
64817;DHT22;69411;45.656;11.740;2024-03-29T00:23:02;8.80;82.60
64817;DHT22;69411;45.656;11.740;2024-03-29T00:25:28;8.90;82.70
64817;DHT22;69411;45.656;11.740;2024-03-29T00:27:54;8.90;82.70
64817;DHT22;69411;45.656;11.740;2024-03-29T00:30:21;8.90;82.80
64817;DHT22;69411;45.656;11.740;2024-03-29T00:32:46;8.90;82.90
64817;DHT22;69411;45.656;11.740;2024-03-29T00:35:12;9.00;82.90
64817;DHT22;69411;45.656;11.740;2024-03-29T00:37:40;9.00;83.70
64817;DHT22;69411;45.656;11.740;2024-03-29T00:40:06;9.00;83.20
64817;DHT22;69411;45.656;11.740;2024-03-29T00:42:32;9.10;83.00
64817;DHT22;69411;45.656;11.740;2024-03-29T00:44:58;9.10;83.40
64817;DHT22;69411;45.656;11.740;2024-03-29T00:47:24;9.20;83.40
64817;DHT22;69411;45.656;11.740;2024-03-29T00:49:50;9.20;83.30
64817;DHT22;69411;45.656;11.740;2024-03-29T00:52:16;9.20;83.20
64817;DHT22;69411;45.656;11.740;2024-03-29T00:54:41;9.20;83.50
64817;DHT22;69411;45.656;11.740;2024-03-29T00:57:07;9.20;83.70
64817;DHT22;69411;45.656;11.740;2024-03-29T00:59:38;9.20;83.60
64817;DHT22;69411;45.656;11.740;2024-03-29T01:02:04;9.30;83.70
64817;DHT22;69411;45.656;11.740;2024-03-29T01:04:30;9.20;83.70
64817;DHT22;69411;45.656;11.740;2024-03-29T01:06:56;9.20;83.60
64817;DHT22;69411;45.656;11.740;2024-03-29T01:09:22;9.30;83.40
64817;DHT22;69411;45.656;11.740;2024-03-29T01:11:50;9.30;83.70
64817;DHT22;69411;45.656;11.740;2024-03-29T01:14:16;9.30;83.90
64817;DHT22;69411;45.656;11.740;2024-03-29T01:16:42;9.20;84.10
64817;DHT22;69411;45.656;11.740;2024-03-29T01:19:08;9.20;84.40
64817;DHT22;69411;45.656;11.740;2024-03-29T01:21:36;9.20;84.20
64817;DHT22;69411;45.656;11.740;2024-03-29T01:24:03;9.30;84.00
64817;DHT22;69411;45.656;11.740;2024-03-29T01:26:30;9.30;83.70
64817;DHT22;69411;45.656;11.740;2024-03-29T01:28:56;9.40;83.50
64817;DHT22;69411;45.656;11.740;2024-03-29T01:31:25;9.40;83.50
64817;DHT22;69411;45.656;11.740;2024-03-29T01:33:51;9.40;83.50
64817;DHT22;69411;45.656;11.740;2024-03-29T01:36:17;9.40;83.40
64817;DHT22;69411;45.656;11.740;2024-03-29T01:38:43;9.50;83.40
64817;DHT22;69411;45.656;11.740;2024-03-29T01:41:11;9.40;83.20
64817;DHT22;69411;45.656;11.740;2024-03-29T01:43:38;9.50;83.10
64817;DHT22;69411;45.656;11.740;2024-03-29T01:46:04;9.50;83.30
64817;DHT22;69411;45.656;11.740;2024-03-29T01:48:34;9.50;83.20
64817;DHT22;69411;45.656;11.740;2024-03-29T01:51:01;9.50;83.10
64817;DHT22;69411;45.656;11.740;2024-03-29T01:53:27;9.50;83.00
64817;DHT22;69411;45.656;11.740;2024-03-29T01:55:54;9.50;82.80
64817;DHT22;69411;45.656;11.740;2024-03-29T01:58:21;9.60;82.80
64817;DHT22;69411;45.656;11.740;2024-03-29T02:00:55;9.60;82.70
64817;DHT22;69411;45.656;11.740;2024-03-29T02:03:22;9.60;82.90
64817;DHT22;69411;45.656;11.740;2024-03-29T02:05:49;9.60;82.90
64817;DHT22;69411;45.656;11.740;2024-03-29T02:08:16;9.60;82.80
64817;DHT22;69411;45.656;11.740;2024-03-29T02:10:43;9.60;82.70
64817;DHT22;69411;45.656;11.740;2024-03-29T02:13:11;9.60;82.80
64817;DHT22;69411;45.656;11.740;2024-03-29T02:15:36;9.60;82.80
64817;DHT22;69411;45.656;11.740;2024-03-29T02:18:02;9.60;82.50
64817;DHT22;69411;45.656;11.740;2024-03-29T02:20:28;9.60;82.80
64817;DHT22;69411;45.656;11.740;2024-03-29T02:23:06;9.60;82.70
64817;DHT22;69411;45.656;11.740;2024-03-29T02:25:36;9.60;82.80
64817;DHT22;69411;45.656;11.740;2024-03-29T02:28:03;9.60;82.60
64817;DHT22;69411;45.656;11.740;2024-03-29T02:30:30;9.60;82.90
64817;DHT22;69411;45.656;11.740;2024-03-29T02:32:59;9.60;82.70
64817;DHT22;69411;45.656;11.740;2024-03-29T02:35:26;9.70;82.80
64817;DHT22;69411;45.656;11.740;2024-03-29T02:37:52;9.60;83.20
64817;DHT22;69411;45.656;11.740;2024-03-29T02:40:21;9.70;83.00
64817;DHT22;69411;45.656;11.740;2024-03-29T02:42:50;9.70;82.90
64817;DHT22;69411;45.656;11.740;2024-03-29T02:45:16;9.70;83.10
64817;DHT22;69411;45.656;11.740;2024-03-29T02:47:43;9.70;83.20
64817;DHT22;69411;45.656;11.740;2024-03-29T02:50:10;9.70;83.10
64817;DHT22;69411;45.656;11.740;2024-03-29T02:52:36;9.70;83.10
64817;DHT22;69411;45.656;11.740;2024-03-29T02:55:03;9.80;83.10
64817;DHT22;69411;45.656;11.740;2024-03-29T02:57:29;9.80;82.80
64817;DHT22;69411;45.656;11.740;2024-03-29T02:59:55;9.70;82.80
64817;DHT22;69411;45.656;11.740;2024-03-29T03:02:21;9.80;82.70
64817;DHT22;69411;45.656;11.740;2024-03-29T03:04:46;9.80;82.80
64817;DHT22;69411;45.656;11.740;2024-03-29T03:07:12;9.80;82.90
64817;DHT22;69411;45.656;11.740;2024-03-29T03:09:57;9.80;82.80
64817;DHT22;69411;45.656;11.740;2024-03-29T03:12:42;9.80;82.70
64817;DHT22;69411;45.656;11.740;2024-03-29T03:15:08;9.80;82.70
64817;DHT22;69411;45.656;11.740;2024-03-29T03:17:35;9.80;82.80
64817;DHT22;69411;45.656;11.740;2024-03-29T03:20:01;9.80;82.80
64817;DHT22;69411;45.656;11.740;2024-03-29T03:22:26;9.80;82.80
64817;DHT22;69411;45.656;11.740;2024-03-29T03:24:52;9.80;82.90
64817;DHT22;69411;45.656;11.740;2024-03-29T03:27:18;9.80;82.70
64817;DHT22;69411;45.656;11.740;2024-03-29T03:29:45;9.90;82.70
64817;DHT22;69411;45.656;11.740;2024-03-29T03:32:11;9.80;82.70
64817;DHT22;69411;45.656;11.740;2024-03-29T03:34:36;9.90;82.70
64817;DHT22;69411;45.656;11.740;2024-03-29T03:37:03;9.90;82.60
64817;DHT22;69411;45.656;11.740;2024-03-29T03:39:29;9.90;82.70
64817;DHT22;69411;45.656;11.740;2024-03-29T03:41:55;9.90;82.70
64817;DHT22;69411;45.656;11.740;2024-03-29T03:44:21;9.90;82.50
64817;DHT22;69411;45.656;11.740;2024-03-29T03:46:49;9.90;82.50
64817;DHT22;69411;45.656;11.740;2024-03-29T03:49:15;9.90;82.50
64817;DHT22;69411;45.656;11.740;2024-03-29T03:51:41;10.00;82.50
64817;DHT22;69411;45.656;11.740;2024-03-29T03:54:07;9.90;82.50
64817;DHT22;69411;45.656;11.740;2024-03-29T03:56:33;9.90;82.40
64817;DHT22;69411;45.656;11.740;2024-03-29T03:58:59;10.00;82.50
64817;DHT22;69411;45.656;11.740;2024-03-29T04:01:26;10.00;82.50
64817;DHT22;69411;45.656;11.740;2024-03-29T04:03:52;10.00;82.50
64817;DHT22;69411;45.656;11.740;2024-03-29T04:06:18;10.00;82.60
64817;DHT22;69411;45.656;11.740;2024-03-29T04:08:45;10.00;82.40
64817;DHT22;69411;45.656;11.740;2024-03-29T04:11:11;10.00;82.30
64817;DHT22;69411;45.656;11.740;2024-03-29T04:13:36;10.00;82.40
64817;DHT22;69411;45.656;11.740;2024-03-29T04:16:05;10.10;82.20
64817;DHT22;69411;45.656;11.740;2024-03-29T04:18:32;10.10;82.30
64817;DHT22;69411;45.656;11.740;2024-03-29T04:21:02;10.00;82.20
64817;DHT22;69411;45.656;11.740;2024-03-29T04:23:29;10.00;82.10
64817;DHT22;69411;45.656;11.740;2024-03-29T04:25:56;10.00;82.10
64817;DHT22;69411;45.656;11.740;2024-03-29T04:28:23;10.00;82.10
64817;DHT22;69411;45.656;11.740;2024-03-29T04:30:59;10.00;82.20
64817;DHT22;69411;45.656;11.740;2024-03-29T04:33:25;10.00;82.00
64817;DHT22;69411;45.656;11.740;2024-03-29T04:38:19;10.00;81.90
64817;DHT22;69411;45.656;11.740;2024-03-29T04:40:45;10.00;82.00
64817;DHT22;69411;45.656;11.740;2024-03-29T04:43:11;10.00;81.90
64817;DHT22;69411;45.656;11.740;2024-03-29T04:45:37;10.00;81.90
64817;DHT22;69411;45.656;11.740;2024-03-29T04:48:03;10.10;82.00
64817;DHT22;69411;45.656;11.740;2024-03-29T04:50:29;10.10;81.90
64817;DHT22;69411;45.656;11.740;2024-03-29T04:52:55;10.10;81.90
64817;DHT22;69411;45.656;11.740;2024-03-29T04:55:21;10.00;81.80
64817;DHT22;69411;45.656;11.740;2024-03-29T04:57:47;10.10;81.80
64817;DHT22;69411;45.656;11.740;2024-03-29T05:00:13;10.00;81.80
64817;DHT22;69411;45.656;11.740;2024-03-29T05:02:39;10.00;81.80
64817;DHT22;69411;45.656;11.740;2024-03-29T05:05:05;10.00;81.80
64817;DHT22;69411;45.656;11.740;2024-03-29T05:07:31;10.00;81.80
64817;DHT22;69411;45.656;11.740;2024-03-29T05:09:57;10.00;81.80
64817;DHT22;69411;45.656;11.740;2024-03-29T05:12:23;10.00;81.80
64817;DHT22;69411;45.656;11.740;2024-03-29T05:14:49;10.00;81.80
64817;DHT22;69411;45.656;11.740;2024-03-29T05:17:15;10.10;81.80
64817;DHT22;69411;45.656;11.740;2024-03-29T05:19:43;10.00;81.80
64817;DHT22;69411;45.656;11.740;2024-03-29T05:22:09;10.00;81.80
64817;DHT22;69411;45.656;11.740;2024-03-29T05:24:35;10.10;81.70
64817;DHT22;69411;45.656;11.740;2024-03-29T05:27:01;10.10;81.70
64817;DHT22;69411;45.656;11.740;2024-03-29T05:29:27;10.00;81.70
64817;DHT22;69411;45.656;11.740;2024-03-29T05:31:53;10.00;81.90
64817;DHT22;69411;45.656;11.740;2024-03-29T05:34:19;10.10;81.90
64817;DHT22;69411;45.656;11.740;2024-03-29T05:36:45;10.00;81.80
64817;DHT22;69411;45.656;11.740;2024-03-29T05:39:11;10.10;81.90
64817;DHT22;69411;45.656;11.740;2024-03-29T05:41:37;10.10;81.90
64817;DHT22;69411;45.656;11.740;2024-03-29T05:44:03;10.10;81.90
64817;DHT22;69411;45.656;11.740;2024-03-29T05:46:29;10.10;81.90
64817;DHT22;69411;45.656;11.740;2024-03-29T05:48:55;10.10;81.80
64817;DHT22;69411;45.656;11.740;2024-03-29T05:51:21;10.10;81.90
64817;DHT22;69411;45.656;11.740;2024-03-29T05:53:47;10.10;81.80
64817;DHT22;69411;45.656;11.740;2024-03-29T05:56:13;10.10;81.70
64817;DHT22;69411;45.656;11.740;2024-03-29T05:58:39;10.20;81.70
64817;DHT22;69411;45.656;11.740;2024-03-29T06:01:05;10.20;81.60
64817;DHT22;69411;45.656;11.740;2024-03-29T06:03:31;10.20;81.50
64817;DHT22;69411;45.656;11.740;2024-03-29T06:05:57;10.20;81.60
64817;DHT22;69411;45.656;11.740;2024-03-29T06:08:23;10.20;81.50
64817;DHT22;69411;45.656;11.740;2024-03-29T06:10:51;10.20;81.50
64817;DHT22;69411;45.656;11.740;2024-03-29T06:13:18;10.10;81.50
64817;DHT22;69411;45.656;11.740;2024-03-29T06:15:55;10.20;81.60
64817;DHT22;69411;45.656;11.740;2024-03-29T06:18:40;10.10;81.50
64817;DHT22;69411;45.656;11.740;2024-03-29T06:21:05;10.20;81.60
64817;DHT22;69411;45.656;11.740;2024-03-29T06:23:31;10.20;81.50
64817;DHT22;69411;45.656;11.740;2024-03-29T06:25:57;10.20;81.70
64817;DHT22;69411;45.656;11.740;2024-03-29T06:28:23;10.20;81.60
64817;DHT22;69411;45.656;11.740;2024-03-29T06:30:49;10.20;81.70
64817;DHT22;69411;45.656;11.740;2024-03-29T06:33:15;10.20;81.60
64817;DHT22;69411;45.656;11.740;2024-03-29T06:35:41;10.20;81.60
64817;DHT22;69411;45.656;11.740;2024-03-29T06:38:07;10.30;81.60
64817;DHT22;69411;45.656;11.740;2024-03-29T06:40:33;10.30;81.70
64817;DHT22;69411;45.656;11.740;2024-03-29T06:42:59;10.30;81.60
64817;DHT22;69411;45.656;11.740;2024-03-29T06:45:26;10.30;81.60
64817;DHT22;69411;45.656;11.740;2024-03-29T06:47:53;10.30;81.50
64817;DHT22;69411;45.656;11.740;2024-03-29T06:50:19;10.30;81.50
64817;DHT22;69411;45.656;11.740;2024-03-29T06:52:45;10.30;81.50
64817;DHT22;69411;45.656;11.740;2024-03-29T06:55:11;10.30;81.50
64817;DHT22;69411;45.656;11.740;2024-03-29T06:57:37;10.30;81.90
64817;DHT22;69411;45.656;11.740;2024-03-29T07:00:04;10.30;81.80
64817;DHT22;69411;45.656;11.740;2024-03-29T07:02:30;10.40;82.00
64817;DHT22;69411;45.656;11.740;2024-03-29T07:04:56;10.30;81.70
64817;DHT22;69411;45.656;11.740;2024-03-29T07:07:22;10.40;81.70
64817;DHT22;69411;45.656;11.740;2024-03-29T07:09:47;10.40;81.80
64817;DHT22;69411;45.656;11.740;2024-03-29T07:12:13;10.40;81.80
64817;DHT22;69411;45.656;11.740;2024-03-29T07:14:39;10.30;81.90
64817;DHT22;69411;45.656;11.740;2024-03-29T07:17:05;10.40;81.80
64817;DHT22;69411;45.656;11.740;2024-03-29T07:19:31;10.40;81.80
64817;DHT22;69411;45.656;11.740;2024-03-29T07:21:57;10.40;81.80
64817;DHT22;69411;45.656;11.740;2024-03-29T07:24:23;10.40;81.90
64817;DHT22;69411;45.656;11.740;2024-03-29T07:26:49;10.40;82.00
64817;DHT22;69411;45.656;11.740;2024-03-29T07:29:15;10.40;82.00
64817;DHT22;69411;45.656;11.740;2024-03-29T07:31:41;10.40;81.90
64817;DHT22;69411;45.656;11.740;2024-03-29T07:34:07;10.40;81.90
64817;DHT22;69411;45.656;11.740;2024-03-29T07:36:33;10.40;82.10
64817;DHT22;69411;45.656;11.740;2024-03-29T07:39:01;10.40;81.90
64817;DHT22;69411;45.656;11.740;2024-03-29T07:41:28;10.40;82.00
64817;DHT22;69411;45.656;11.740;2024-03-29T07:43:56;10.40;82.00
64817;DHT22;69411;45.656;11.740;2024-03-29T07:46:28;10.50;82.00
64817;DHT22;69411;45.656;11.740;2024-03-29T07:48:54;10.50;81.90
64817;DHT22;69411;45.656;11.740;2024-03-29T07:51:20;10.50;82.10
64817;DHT22;69411;45.656;11.740;2024-03-29T07:53:45;10.60;82.00
64817;DHT22;69411;45.656;11.740;2024-03-29T07:56:12;10.60;81.90
64817;DHT22;69411;45.656;11.740;2024-03-29T07:58:38;10.60;81.90
64817;DHT22;69411;45.656;11.740;2024-03-29T08:01:04;10.60;82.00
64817;DHT22;69411;45.656;11.740;2024-03-29T08:03:30;10.70;82.00
64817;DHT22;69411;45.656;11.740;2024-03-29T08:06:01;10.70;82.00
64817;DHT22;69411;45.656;11.740;2024-03-29T08:08:33;10.80;81.90
64817;DHT22;69411;45.656;11.740;2024-03-29T08:10:59;10.80;81.80
64817;DHT22;69411;45.656;11.740;2024-03-29T08:13:26;10.90;81.90
64817;DHT22;69411;45.656;11.740;2024-03-29T08:16:01;10.90;81.90
64817;DHT22;69411;45.656;11.740;2024-03-29T08:18:28;10.90;81.70
64817;DHT22;69411;45.656;11.740;2024-03-29T08:20:54;11.00;81.70
64817;DHT22;69411;45.656;11.740;2024-03-29T08:23:21;11.10;81.70
64817;DHT22;69411;45.656;11.740;2024-03-29T08:25:47;11.10;81.70
64817;DHT22;69411;45.656;11.740;2024-03-29T08:28:14;11.20;81.70
64817;DHT22;69411;45.656;11.740;2024-03-29T08:30:40;11.30;81.60
64817;DHT22;69411;45.656;11.740;2024-03-29T08:33:06;11.30;81.50
64817;DHT22;69411;45.656;11.740;2024-03-29T08:35:35;11.40;81.30
64817;DHT22;69411;45.656;11.740;2024-03-29T08:38:01;11.40;81.30
64817;DHT22;69411;45.656;11.740;2024-03-29T08:40:28;11.40;81.20
64817;DHT22;69411;45.656;11.740;2024-03-29T08:42:56;11.40;81.20
64817;DHT22;69411;45.656;11.740;2024-03-29T08:45:22;11.40;81.20
64817;DHT22;69411;45.656;11.740;2024-03-29T08:47:48;11.50;81.10
64817;DHT22;69411;45.656;11.740;2024-03-29T08:50:14;11.50;81.10
64817;DHT22;69411;45.656;11.740;2024-03-29T08:52:41;11.50;81.10
64817;DHT22;69411;45.656;11.740;2024-03-29T08:57:49;11.50;80.80
64817;DHT22;69411;45.656;11.740;2024-03-29T09:00:15;11.50;80.50
64817;DHT22;69411;45.656;11.740;2024-03-29T09:02:41;11.40;79.70
64817;DHT22;69411;45.656;11.740;2024-03-29T09:05:07;11.40;79.90
64817;DHT22;69411;45.656;11.740;2024-03-29T09:07:33;11.40;80.00
64817;DHT22;69411;45.656;11.740;2024-03-29T09:09:59;11.50;80.20
64817;DHT22;69411;45.656;11.740;2024-03-29T09:12:25;11.40;80.20
64817;DHT22;69411;45.656;11.740;2024-03-29T09:14:51;11.40;80.20
64817;DHT22;69411;45.656;11.740;2024-03-29T09:17:18;11.40;80.20
64817;DHT22;69411;45.656;11.740;2024-03-29T09:19:45;11.40;80.30
64817;DHT22;69411;45.656;11.740;2024-03-29T09:22:11;11.50;80.40
64817;DHT22;69411;45.656;11.740;2024-03-29T09:24:37;11.60;80.30
64817;DHT22;69411;45.656;11.740;2024-03-29T09:27:03;11.60;80.40
64817;DHT22;69411;45.656;11.740;2024-03-29T09:29:29;11.70;80.50
64817;DHT22;69411;45.656;11.740;2024-03-29T09:31:56;11.70;80.40
64817;DHT22;69411;45.656;11.740;2024-03-29T09:34:22;11.80;80.40
64817;DHT22;69411;45.656;11.740;2024-03-29T09:36:49;11.90;80.40
64817;DHT22;69411;45.656;11.740;2024-03-29T09:39:15;11.90;80.40
64817;DHT22;69411;45.656;11.740;2024-03-29T09:44:37;12.00;80.30
64817;DHT22;69411;45.656;11.740;2024-03-29T09:47:04;12.10;80.30
64817;DHT22;69411;45.656;11.740;2024-03-29T09:49:33;12.20;80.30
64817;DHT22;69411;45.656;11.740;2024-03-29T09:51:59;12.20;80.20
64817;DHT22;69411;45.656;11.740;2024-03-29T09:54:31;12.30;80.00
64817;DHT22;69411;45.656;11.740;2024-03-29T09:56:58;12.30;80.00
64817;DHT22;69411;45.656;11.740;2024-03-29T09:59:24;12.40;80.00
64817;DHT22;69411;45.656;11.740;2024-03-29T10:01:54;12.50;79.90
64817;DHT22;69411;45.656;11.740;2024-03-29T10:04:23;12.50;80.00
64817;DHT22;69411;45.656;11.740;2024-03-29T10:06:51;12.70;80.10
64817;DHT22;69411;45.656;11.740;2024-03-29T10:09:21;12.80;80.30
64817;DHT22;69411;45.656;11.740;2024-03-29T10:11:48;12.90;80.00
64817;DHT22;69411;45.656;11.740;2024-03-29T10:14:14;13.00;79.80
64817;DHT22;69411;45.656;11.740;2024-03-29T10:16:40;13.10;79.70
64817;DHT22;69411;45.656;11.740;2024-03-29T10:19:07;13.20;79.50
64817;DHT22;69411;45.656;11.740;2024-03-29T10:21:33;13.40;79.40
64817;DHT22;69411;45.656;11.740;2024-03-29T10:24:13;13.50;79.30
64817;DHT22;69411;45.656;11.740;2024-03-29T10:26:41;13.60;79.30
64817;DHT22;69411;45.656;11.740;2024-03-29T10:29:07;13.80;78.90
64817;DHT22;69411;45.656;11.740;2024-03-29T10:31:36;14.00;78.50
64817;DHT22;69411;45.656;11.740;2024-03-29T10:34:05;14.20;78.30
64817;DHT22;69411;45.656;11.740;2024-03-29T10:36:34;14.30;77.80
64817;DHT22;69411;45.656;11.740;2024-03-29T10:39:10;14.40;77.40
64817;DHT22;69411;45.656;11.740;2024-03-29T10:41:40;14.50;77.20
64817;DHT22;69411;45.656;11.740;2024-03-29T10:44:09;14.60;77.10
64817;DHT22;69411;45.656;11.740;2024-03-29T10:46:37;14.70;76.70
64817;DHT22;69411;45.656;11.740;2024-03-29T10:49:10;14.70;74.90
64817;DHT22;69411;45.656;11.740;2024-03-29T10:51:40;14.70;74.60
64817;DHT22;69411;45.656;11.740;2024-03-29T10:54:09;14.70;73.60
64817;DHT22;69411;45.656;11.740;2024-03-29T10:56:36;14.70;73.80
64817;DHT22;69411;45.656;11.740;2024-03-29T10:59:27;14.80;74.40
64817;DHT22;69411;45.656;11.740;2024-03-29T11:01:59;14.80;74.40
64817;DHT22;69411;45.656;11.740;2024-03-29T11:04:31;14.90;73.70
64817;DHT22;69411;45.656;11.740;2024-03-29T11:07:01;14.90;73.80
64817;DHT22;69411;45.656;11.740;2024-03-29T11:09:33;15.00;73.70
64817;DHT22;69411;45.656;11.740;2024-03-29T11:12:02;15.10;74.50
64817;DHT22;69411;45.656;11.740;2024-03-29T11:14:37;15.10;73.70
64817;DHT22;69411;45.656;11.740;2024-03-29T11:17:06;15.10;73.00
64817;DHT22;69411;45.656;11.740;2024-03-29T11:19:33;15.00;72.30
64817;DHT22;69411;45.656;11.740;2024-03-29T11:21:59;15.00;72.80
64817;DHT22;69411;45.656;11.740;2024-03-29T11:24:27;15.00;73.10
64817;DHT22;69411;45.656;11.740;2024-03-29T11:26:54;15.10;73.70
64817;DHT22;69411;45.656;11.740;2024-03-29T11:29:22;15.10;73.70
64817;DHT22;69411;45.656;11.740;2024-03-29T11:31:55;15.30;73.40
64817;DHT22;69411;45.656;11.740;2024-03-29T11:34:21;15.40;73.10
64817;DHT22;69411;45.656;11.740;2024-03-29T11:36:47;15.60;73.00
64817;DHT22;69411;45.656;11.740;2024-03-29T11:39:21;15.60;72.20
64817;DHT22;69411;45.656;11.740;2024-03-29T11:41:47;15.70;71.70
64817;DHT22;69411;45.656;11.740;2024-03-29T11:44:14;15.80;70.80
64817;DHT22;69411;45.656;11.740;2024-03-29T11:46:40;15.90;69.30
64817;DHT22;69411;45.656;11.740;2024-03-29T11:49:06;15.90;71.20
64817;DHT22;69411;45.656;11.740;2024-03-29T11:51:33;16.10;71.60
64817;DHT22;69411;45.656;11.740;2024-03-29T11:54:00;16.20;70.80
64817;DHT22;69411;45.656;11.740;2024-03-29T11:56:26;16.20;70.50
64817;DHT22;69411;45.656;11.740;2024-03-29T11:58:52;16.30;70.10
64817;DHT22;69411;45.656;11.740;2024-03-29T12:01:19;16.30;70.30
64817;DHT22;69411;45.656;11.740;2024-03-29T12:03:46;16.40;70.30
64817;DHT22;69411;45.656;11.740;2024-03-29T12:06:14;16.40;70.20
64817;DHT22;69411;45.656;11.740;2024-03-29T12:08:41;16.40;69.60
64817;DHT22;69411;45.656;11.740;2024-03-29T12:11:08;16.40;70.00
64817;DHT22;69411;45.656;11.740;2024-03-29T12:13:34;16.40;68.80
64817;DHT22;69411;45.656;11.740;2024-03-29T12:16:01;16.40;70.00
64817;DHT22;69411;45.656;11.740;2024-03-29T12:18:27;16.30;70.40
64817;DHT22;69411;45.656;11.740;2024-03-29T12:20:54;16.30;70.30
64817;DHT22;69411;45.656;11.740;2024-03-29T12:23:21;16.30;70.40
64817;DHT22;69411;45.656;11.740;2024-03-29T12:25:49;16.40;71.20
64817;DHT22;69411;45.656;11.740;2024-03-29T12:28:16;16.50;71.10
64817;DHT22;69411;45.656;11.740;2024-03-29T12:30:44;16.60;70.90
64817;DHT22;69411;45.656;11.740;2024-03-29T12:33:15;16.70;70.40
64817;DHT22;69411;45.656;11.740;2024-03-29T12:35:49;16.80;69.90
64817;DHT22;69411;45.656;11.740;2024-03-29T12:38:19;16.90;70.60
64817;DHT22;69411;45.656;11.740;2024-03-29T12:40:46;16.90;70.60
64817;DHT22;69411;45.656;11.740;2024-03-29T12:43:20;17.00;70.70
64817;DHT22;69411;45.656;11.740;2024-03-29T12:45:49;17.20;70.00
64817;DHT22;69411;45.656;11.740;2024-03-29T12:48:20;17.20;70.30
64817;DHT22;69411;45.656;11.740;2024-03-29T12:50:47;17.30;69.40
64817;DHT22;69411;45.656;11.740;2024-03-29T12:53:15;17.30;69.10
64817;DHT22;69411;45.656;11.740;2024-03-29T12:55:43;17.30;69.80
64817;DHT22;69411;45.656;11.740;2024-03-29T12:58:15;17.40;69.00
64817;DHT22;69411;45.656;11.740;2024-03-29T13:00:44;17.40;69.70
64817;DHT22;69411;45.656;11.740;2024-03-29T13:03:10;17.40;69.50
64817;DHT22;69411;45.656;11.740;2024-03-29T13:05:40;17.50;68.80
64817;DHT22;69411;45.656;11.740;2024-03-29T13:08:17;17.50;69.00
64817;DHT22;69411;45.656;11.740;2024-03-29T13:10:47;17.60;69.20
64817;DHT22;69411;45.656;11.740;2024-03-29T13:13:17;17.60;68.50
64817;DHT22;69411;45.656;11.740;2024-03-29T13:15:43;17.60;68.90
64817;DHT22;69411;45.656;11.740;2024-03-29T13:18:13;17.70;68.70
64817;DHT22;69411;45.656;11.740;2024-03-29T13:20:44;17.60;66.60
64817;DHT22;69411;45.656;11.740;2024-03-29T13:23:11;17.70;67.60
64817;DHT22;69411;45.656;11.740;2024-03-29T13:25:39;17.70;67.70
64817;DHT22;69411;45.656;11.740;2024-03-29T13:28:05;17.60;67.00
64817;DHT22;69411;45.656;11.740;2024-03-29T13:30:33;17.70;68.30
64817;DHT22;69411;45.656;11.740;2024-03-29T13:32:59;17.70;67.90
64817;DHT22;69411;45.656;11.740;2024-03-29T13:35:25;17.60;65.40
64817;DHT22;69411;45.656;11.740;2024-03-29T13:37:52;17.70;67.40
64817;DHT22;69411;45.656;11.740;2024-03-29T13:40:22;17.70;66.40
64817;DHT22;69411;45.656;11.740;2024-03-29T13:42:48;17.70;66.80
64817;DHT22;69411;45.656;11.740;2024-03-29T13:45:15;17.70;67.50
64817;DHT22;69411;45.656;11.740;2024-03-29T13:47:43;17.70;66.90
64817;DHT22;69411;45.656;11.740;2024-03-29T13:50:10;17.80;67.20
64817;DHT22;69411;45.656;11.740;2024-03-29T13:52:37;17.80;66.60
64817;DHT22;69411;45.656;11.740;2024-03-29T13:55:04;17.80;66.40
64817;DHT22;69411;45.656;11.740;2024-03-29T13:57:30;17.80;67.70
64817;DHT22;69411;45.656;11.740;2024-03-29T13:59:57;17.80;66.70
64817;DHT22;69411;45.656;11.740;2024-03-29T14:02:25;17.80;66.80
64817;DHT22;69411;45.656;11.740;2024-03-29T14:04:54;17.80;66.40
64817;DHT22;69411;45.656;11.740;2024-03-29T14:07:21;17.80;66.80
64817;DHT22;69411;45.656;11.740;2024-03-29T14:09:50;17.90;67.10
64817;DHT22;69411;45.656;11.740;2024-03-29T14:12:16;17.90;66.80
64817;DHT22;69411;45.656;11.740;2024-03-29T14:14:44;17.90;65.40
64817;DHT22;69411;45.656;11.740;2024-03-29T14:17:14;17.90;66.30
64817;DHT22;69411;45.656;11.740;2024-03-29T14:19:40;17.80;66.80
64817;DHT22;69411;45.656;11.740;2024-03-29T14:22:07;17.80;67.00
64817;DHT22;69411;45.656;11.740;2024-03-29T14:24:34;17.80;67.30
64817;DHT22;69411;45.656;11.740;2024-03-29T14:27:05;17.80;67.20
64817;DHT22;69411;45.656;11.740;2024-03-29T14:29:32;17.80;65.90
64817;DHT22;69411;45.656;11.740;2024-03-29T14:31:59;17.70;66.90
64817;DHT22;69411;45.656;11.740;2024-03-29T14:34:25;17.70;67.40
64817;DHT22;69411;45.656;11.740;2024-03-29T14:36:52;17.80;67.60
64817;DHT22;69411;45.656;11.740;2024-03-29T14:39:18;17.70;67.20
64817;DHT22;69411;45.656;11.740;2024-03-29T14:41:49;17.60;66.10
64817;DHT22;69411;45.656;11.740;2024-03-29T14:44:17;17.60;67.20
64817;DHT22;69411;45.656;11.740;2024-03-29T14:46:46;17.50;66.70
64817;DHT22;69411;45.656;11.740;2024-03-29T14:49:13;17.50;67.30
64817;DHT22;69411;45.656;11.740;2024-03-29T14:51:40;17.50;67.30
64817;DHT22;69411;45.656;11.740;2024-03-29T14:54:06;17.50;67.20
64817;DHT22;69411;45.656;11.740;2024-03-29T14:56:33;17.60;67.30
64817;DHT22;69411;45.656;11.740;2024-03-29T14:59:01;17.60;67.80
64817;DHT22;69411;45.656;11.740;2024-03-29T15:01:28;17.50;67.50
64817;DHT22;69411;45.656;11.740;2024-03-29T15:03:54;17.60;67.60
64817;DHT22;69411;45.656;11.740;2024-03-29T15:06:20;17.60;68.00
64817;DHT22;69411;45.656;11.740;2024-03-29T15:08:48;17.50;67.20
64817;DHT22;69411;45.656;11.740;2024-03-29T15:11:14;17.50;68.00
64817;DHT22;69411;45.656;11.740;2024-03-29T15:13:40;17.50;68.10
64817;DHT22;69411;45.656;11.740;2024-03-29T15:16:06;17.40;67.90
64817;DHT22;69411;45.656;11.740;2024-03-29T15:18:32;17.40;68.20
64817;DHT22;69411;45.656;11.740;2024-03-29T15:21:00;17.40;69.10
64817;DHT22;69411;45.656;11.740;2024-03-29T15:23:27;17.30;69.40
64817;DHT22;69411;45.656;11.740;2024-03-29T15:25:54;17.40;70.20
64817;DHT22;69411;45.656;11.740;2024-03-29T15:28:21;17.20;70.60